createdAt,value
2019-04-28T00:02:11.116Z,100148.56
2019-04-28T00:04:41.612Z,100151.08
2019-04-28T00:07:12.034Z,100151.81
2019-04-28T00:09:42.533Z,100152.16
2019-04-28T00:12:11.923Z,100150.00
2019-04-28T00:14:42.349Z,100160.16
2019-04-28T00:17:12.866Z,100156.33
2019-04-28T00:19:44.487Z,100156.80
2019-04-28T00:22:21.003Z,100163.89
2019-04-28T00:25:04.465Z,100164.36
2019-04-28T00:27:34.699Z,100160.99
2019-04-28T00:30:11.655Z,100150.70
2019-04-28T00:32:42.692Z,100158.97
2019-04-28T00:35:12.786Z,100165.82
2019-04-28T00:37:42.620Z,100165.23
2019-04-28T00:40:13.423Z,100164.12
2019-04-28T00:42:43.492Z,100165.23
2019-04-28T00:45:16.120Z,100164.88
2019-04-28T00:47:46.023Z,100165.09
2019-04-28T00:50:16.633Z,100169.19
2019-04-28T00:52:46.726Z,100175.98
2019-04-28T00:55:16.465Z,100175.14
2019-04-28T00:57:46.109Z,100179.59
2019-04-28T01:00:18.404Z,100183.88
2019-04-28T01:02:48.655Z,100171.63
2019-04-28T01:05:21.363Z,100173.42
2019-04-28T01:07:52.739Z,100178.69
2019-04-28T01:10:23.236Z,100172.01
2019-04-28T01:12:52.880Z,100178.80
2019-04-28T01:15:41.412Z,100184.08
2019-04-28T01:18:33.681Z,100181.44
2019-04-28T01:21:03.407Z,100175.09
2019-04-28T01:23:38.018Z,100166.35
2019-04-28T01:26:09.948Z,100173.33
2019-04-28T01:28:40.190Z,100170.52
2019-04-28T01:31:27.282Z,100173.62
2019-04-28T01:34:20.346Z,100179.13
2019-04-28T01:36:51.679Z,100177.34
2019-04-28T01:39:23.322Z,100178.69
2019-04-28T01:41:52.973Z,100182.76
2019-04-28T01:44:22.903Z,100186.80
2019-04-28T01:46:56.320Z,100185.86
2019-04-28T01:49:26.071Z,100184.08
2019-04-28T01:52:00.892Z,100189.34
2019-04-28T01:54:31.098Z,100190.41
2019-04-28T01:57:01.698Z,100185.59
2019-04-28T01:59:32.990Z,100190.41
2019-04-28T02:02:02.580Z,100187.80
2019-04-28T02:04:32.704Z,100193.50
2019-04-28T02:07:02.264Z,100189.95
2019-04-28T02:09:31.928Z,100207.42
2019-04-28T02:12:01.973Z,100205.22
2019-04-28T02:14:31.786Z,100203.97
2019-04-28T02:17:01.441Z,100202.96
2019-04-28T02:19:32.990Z,100208.23
2019-04-28T02:22:21.688Z,100201.48
2019-04-28T02:24:51.487Z,100204.55
2019-04-28T02:27:23.706Z,100206.59
2019-04-28T02:29:53.090Z,100210.05
2019-04-28T02:32:24.452Z,100206.59
2019-04-28T02:34:55.581Z,100209.06
2019-04-28T02:37:25.682Z,100207.98
2019-04-28T02:39:56.326Z,100212.61
2019-04-28T02:42:26.272Z,100208.95
2019-04-28T02:44:56.012Z,100215.89
2019-04-28T02:47:25.856Z,100211.29
2019-04-28T02:50:07.258Z,100216.87
2019-04-28T02:52:54.619Z,100213.30
2019-04-28T02:55:25.809Z,100213.19
2019-04-28T02:57:56.744Z,100209.23
2019-04-28T03:00:26.423Z,100210.43
2019-04-28T03:02:56.363Z,100215.47
2019-04-28T03:05:27.000Z,100211.41
2019-04-28T03:07:56.899Z,100214.73
2019-04-28T03:10:27.258Z,100209.11
2019-04-28T03:12:57.657Z,100206.48
2019-04-28T03:15:30.181Z,100209.81
2019-04-28T03:18:02.085Z,100212.63
2019-04-28T03:20:32.478Z,100210.00
2019-04-28T03:23:03.118Z,100216.86
2019-04-28T03:25:43.019Z,100215.00
2019-04-28T03:28:41.406Z,100213.19
2019-04-28T03:32:04.268Z,100220.89
2019-04-28T03:34:04.109Z,100217.19
2019-04-28T03:36:34.249Z,100221.48
2019-04-28T03:39:06.660Z,100220.09
2019-04-28T03:41:36.484Z,100225.36
2019-04-28T03:44:06.649Z,100234.35
2019-04-28T03:46:44.025Z,100240.94
2019-04-28T03:49:31.993Z,100249.40
2019-04-28T03:52:03.796Z,100246.99
2019-04-28T03:54:34.041Z,100250.52
2019-04-28T03:57:03.838Z,100242.03
2019-04-28T03:59:35.558Z,100257.33
2019-04-28T04:02:06.904Z,100253.27
2019-04-28T04:04:36.981Z,100261.91
2019-04-28T04:07:07.356Z,100258.85
2019-04-28T04:09:51.494Z,100262.11
2019-04-28T04:12:31.962Z,100267.00
2019-04-28T04:15:30.941Z,100264.59
2019-04-28T04:18:11.030Z,100258.47
2019-04-28T04:20:43.467Z,100267.11
2019-04-28T04:23:13.330Z,100264.01
2019-04-28T04:25:43.183Z,100257.19
2019-04-28T04:28:13.362Z,100253.23
2019-04-28T04:30:42.995Z,100242.54
2019-04-28T04:33:13.127Z,100241.56
2019-04-28T04:35:43.639Z,100247.23
2019-04-28T04:38:14.691Z,100258.05
2019-04-28T04:40:46.850Z,100261.30
2019-04-28T04:43:16.528Z,100259.73
2019-04-28T04:45:46.630Z,100266.92
2019-04-28T04:48:16.733Z,100275.34
2019-04-28T04:50:46.944Z,100272.63
2019-04-28T04:53:17.368Z,100280.62
2019-04-28T04:55:47.090Z,100286.01
2019-04-28T04:58:16.712Z,100286.52
2019-04-28T05:01:02.551Z,100290.50
2019-04-28T05:03:34.970Z,100295.82
2019-04-28T05:06:24.377Z,100306.33
2019-04-28T05:08:54.007Z,100308.23
2019-04-28T05:11:25.444Z,100318.48
2019-04-28T05:13:55.888Z,100320.33
2019-04-28T05:16:25.550Z,100320.45
2019-04-28T05:18:56.405Z,100313.86
2019-04-28T05:21:26.082Z,100320.95
2019-04-28T05:24:20.093Z,100319.41
2019-04-28T05:26:51.702Z,100325.07
2019-04-28T05:29:26.692Z,100325.58
2019-04-28T05:31:59.747Z,100330.62
2019-04-28T05:34:29.666Z,100345.55
2019-04-28T05:37:00.712Z,100349.16
2019-04-28T05:39:32.014Z,100351.80
2019-04-28T05:42:02.386Z,100352.84
2019-04-28T05:44:32.612Z,100357.43
2019-04-28T05:47:02.215Z,100363.02
2019-04-28T05:50:00.220Z,100368.09
2019-04-28T05:53:02.324Z,100366.66
2019-04-28T05:55:56.505Z,100360.56
2019-04-28T05:58:32.151Z,100363.52
2019-04-28T06:01:12.885Z,100360.84
2019-04-28T06:03:42.850Z,100361.19
2019-04-28T06:06:15.729Z,100364.02
2019-04-28T06:09:04.277Z,100367.43
2019-04-28T06:11:36.794Z,100368.98
2019-04-28T06:14:06.484Z,100366.11
2019-04-28T06:16:36.896Z,100371.31
2019-04-28T06:19:07.438Z,100370.04
2019-04-28T06:21:37.787Z,100362.46
2019-04-28T06:24:07.758Z,100364.51
2019-04-28T06:26:38.378Z,100366.22
2019-04-28T06:29:08.776Z,100359.11
2019-04-28T06:31:39.998Z,100354.70
2019-04-28T06:34:11.651Z,100356.03
2019-04-28T06:36:41.418Z,100354.47
2019-04-28T06:39:12.057Z,100362.17
2019-04-28T06:41:42.264Z,100357.22
2019-04-28T06:44:12.077Z,100370.05
2019-04-28T06:46:42.838Z,100370.17
2019-04-28T06:49:13.213Z,100379.41
2019-04-28T06:51:42.836Z,100376.14
2019-04-28T06:54:13.253Z,100386.98
2019-04-28T06:56:42.772Z,100389.81
2019-04-28T06:59:12.588Z,100391.03
2019-04-28T07:01:42.407Z,100392.31
2019-04-28T07:04:12.480Z,100402.50
2019-04-28T07:06:41.899Z,100401.88
2019-04-28T07:09:12.961Z,100411.52
2019-04-28T07:11:42.565Z,100424.68
2019-04-28T07:14:11.998Z,100424.84
2019-04-28T07:16:42.878Z,100431.81
2019-04-28T07:19:12.258Z,100433.37
2019-04-28T07:22:04.447Z,100432.64
2019-04-28T07:24:34.682Z,100430.67
2019-04-28T07:27:06.620Z,100436.39
2019-04-28T07:30:24.628Z,100439.86
2019-04-28T07:32:54.469Z,100438.66
2019-04-28T07:35:25.789Z,100441.41
2019-04-28T07:37:59.534Z,100441.26
2019-04-28T07:40:31.449Z,100441.53
2019-04-28T07:43:00.995Z,100447.76
2019-04-28T07:45:32.801Z,100440.04
2019-04-28T07:48:03.754Z,100442.33
2019-04-28T07:50:33.257Z,100449.16
2019-04-28T07:53:29.720Z,100459.62
2019-04-28T07:56:00.303Z,100452.40
2019-04-28T07:58:31.110Z,100466.72
2019-04-28T08:01:01.427Z,100472.38
2019-04-28T08:03:31.172Z,100475.19
2019-04-28T08:06:01.423Z,100480.55
2019-04-28T08:08:30.808Z,100485.52
2019-04-28T08:11:00.384Z,100484.95
2019-04-28T08:13:30.214Z,100491.56
2019-04-28T08:16:03.359Z,100497.25
2019-04-28T08:18:34.312Z,100497.46
2019-04-28T08:21:06.619Z,100495.52
2019-04-28T08:23:47.263Z,100491.59
2019-04-28T08:26:13.879Z,100498.36
2019-04-28T08:28:45.040Z,100494.39
2019-04-28T08:31:19.512Z,100501.78
2019-04-28T08:34:02.299Z,100498.80
2019-04-28T08:36:29.142Z,100511.67
2019-04-28T08:39:28.297Z,100511.27
2019-04-28T08:41:58.362Z,100510.35
2019-04-28T08:44:28.183Z,100513.35
2019-04-28T08:46:58.797Z,100510.58
2019-04-28T08:49:33.905Z,100505.82
2019-04-28T08:52:03.480Z,100509.84
2019-04-28T08:54:37.509Z,100502.63
2019-04-28T08:57:10.252Z,100510.60
2019-04-28T08:59:42.553Z,100516.58
2019-04-28T09:02:13.343Z,100518.98
2019-04-28T09:04:43.262Z,100510.39
2019-04-28T09:07:13.816Z,100519.73
2019-04-28T09:09:46.007Z,100524.93
2019-04-28T09:12:16.183Z,100522.60
2019-04-28T09:14:47.770Z,100527.91
2019-04-28T09:17:17.406Z,100532.09
2019-04-28T09:19:55.933Z,100529.55
2019-04-28T09:22:26.308Z,100528.53
2019-04-28T09:25:00.882Z,100531.61
2019-04-28T09:27:31.159Z,100526.75
2019-04-28T09:30:06.978Z,100522.40
2019-04-28T09:32:38.893Z,100526.52
2019-04-28T09:35:10.581Z,100521.80
2019-04-28T09:37:41.628Z,100526.22
2019-04-28T09:40:20.838Z,100519.34
2019-04-28T09:43:08.373Z,100516.25
2019-04-28T09:45:58.800Z,100526.31
2019-04-28T09:48:29.846Z,100513.37
2019-04-28T09:51:02.634Z,100517.61
2019-04-28T09:53:40.033Z,100508.11
2019-04-28T09:56:10.165Z,100510.59
2019-04-28T09:58:41.364Z,100512.84
2019-04-28T10:01:11.329Z,100505.47
2019-04-28T10:03:40.858Z,100503.47
2019-04-28T10:06:11.092Z,100488.66
2019-04-28T10:08:40.507Z,100493.72
2019-04-28T10:11:10.947Z,100480.25
2019-04-28T10:13:40.468Z,100491.45
2019-04-28T10:16:12.271Z,100504.91
2019-04-28T10:18:41.975Z,100491.72
2019-04-28T10:21:12.935Z,100492.45
2019-04-28T10:23:43.679Z,100490.11
2019-04-28T10:26:16.167Z,100489.77
2019-04-28T10:28:48.756Z,100485.86
2019-04-28T10:31:19.019Z,100482.96
2019-04-28T10:33:57.226Z,100475.23
2019-04-28T10:36:31.349Z,100485.28
2019-04-28T10:39:20.462Z,100478.02
2019-04-28T10:41:56.803Z,100480.38
2019-04-28T10:44:28.468Z,100478.52
2019-04-28T10:46:58.791Z,100476.06
2019-04-28T10:49:31.349Z,100468.87
2019-04-28T10:52:03.950Z,100476.42
2019-04-28T10:54:34.476Z,100478.05
2019-04-28T10:57:04.907Z,100475.08
2019-04-28T10:59:35.541Z,100475.77
2019-04-28T11:02:05.416Z,100468.75
2019-04-28T11:04:50.852Z,100478.69
2019-04-28T11:07:20.736Z,100476.98
2019-04-28T11:10:28.891Z,100477.26
2019-04-28T11:12:59.009Z,100481.14
2019-04-28T11:15:36.863Z,100479.87
2019-04-28T11:18:09.535Z,100487.78
2019-04-28T11:20:38.983Z,100481.08
2019-04-28T11:26:11.300Z,100485.09
2019-04-28T11:28:53.202Z,100478.56
2019-04-28T11:31:19.461Z,100475.17
2019-04-28T11:34:00.969Z,100480.65
2019-04-28T11:36:33.169Z,100472.42
2019-04-28T11:39:04.915Z,100473.12
2019-04-28T11:41:35.777Z,100482.33
2019-04-28T11:44:05.839Z,100484.77
2019-04-28T11:46:37.942Z,100497.08
2019-04-28T11:49:07.621Z,100484.72
2019-04-28T11:51:37.915Z,100480.06
2019-04-28T11:54:08.920Z,100478.52
2019-04-28T11:56:41.548Z,100480.38
2019-04-28T11:59:11.240Z,100466.12
2019-04-28T12:01:41.018Z,100472.54
2019-04-28T12:04:12.895Z,100470.46
2019-04-28T12:06:43.594Z,100472.33
2019-04-28T12:09:24.198Z,100472.83
2019-04-28T12:11:55.187Z,100473.28
2019-04-28T12:14:30.525Z,100477.78
2019-04-28T12:17:18.616Z,100485.07
2019-04-28T12:19:54.301Z,100482.39
2019-04-28T12:22:25.298Z,100484.58
2019-04-28T12:24:55.645Z,100483.52
2019-04-28T12:27:25.828Z,100488.13
2019-04-28T12:29:55.256Z,100485.10
2019-04-28T12:32:26.870Z,100483.07
2019-04-28T12:34:56.812Z,100476.77
2019-04-28T12:37:26.465Z,100469.69
2019-04-28T12:39:56.648Z,100480.94
2019-04-28T12:42:26.306Z,100485.09
2019-04-28T12:44:57.516Z,100478.11
2019-04-28T12:47:28.645Z,100478.36
2019-04-28T12:50:10.482Z,100479.39
2019-04-28T12:52:40.418Z,100483.78
2019-04-28T12:55:12.799Z,100486.30
2019-04-28T12:57:43.733Z,100481.34
2019-04-28T13:00:33.511Z,100487.66
2019-04-28T13:03:35.510Z,100485.94
2019-04-28T13:06:06.908Z,100485.34
2019-04-28T13:08:36.355Z,100485.94
2019-04-28T13:11:06.125Z,100489.10
2019-04-28T13:13:35.887Z,100490.14
2019-04-28T13:16:07.620Z,100492.33
2019-04-28T13:18:38.919Z,100480.48
2019-04-28T13:21:09.107Z,100486.05
2019-04-28T13:23:41.086Z,100473.39
2019-04-28T13:26:11.163Z,100471.98
2019-04-28T13:28:42.001Z,100474.11
2019-04-28T13:31:12.418Z,100465.47
2019-04-28T13:33:55.947Z,100473.58
2019-04-28T13:36:15.420Z,100464.37
2019-04-28T13:38:46.134Z,100471.09
2019-04-28T13:41:16.819Z,100467.52
2019-04-28T13:43:46.941Z,100462.03
2019-04-28T13:46:17.915Z,100458.27
2019-04-28T13:48:48.132Z,100464.26
2019-04-28T13:51:17.650Z,100462.53
2019-04-28T13:53:47.730Z,100456.60
2019-04-28T13:56:18.005Z,100462.34
2019-04-28T13:58:53.501Z,100456.52
2019-04-28T14:01:39.290Z,100451.18
2019-04-28T14:04:32.431Z,100447.19
2019-04-28T14:07:07.489Z,100454.02
2019-04-28T14:09:38.639Z,100450.89
2019-04-28T14:12:08.696Z,100457.34
2019-04-28T14:14:39.508Z,100456.84
2019-04-28T14:17:09.893Z,100449.44
2019-04-28T14:19:40.089Z,100456.28
2019-04-28T14:22:10.926Z,100455.98
2019-04-28T14:24:41.743Z,100449.28
2019-04-28T14:27:13.190Z,100452.42
2019-04-28T14:29:43.144Z,100455.89
2019-04-28T14:32:13.368Z,100458.25
2019-04-28T14:34:43.166Z,100452.89
2019-04-28T14:37:13.409Z,100463.14
2019-04-28T14:39:43.308Z,100461.30
2019-04-28T14:42:13.877Z,100454.83
2019-04-28T14:44:43.770Z,100460.86
2019-04-28T14:47:13.554Z,100454.63
2019-04-28T14:49:43.933Z,100465.67
2019-04-28T14:52:15.067Z,100464.14
2019-04-28T14:54:44.669Z,100473.26
2019-04-28T14:57:17.173Z,100476.54
2019-04-28T14:59:47.834Z,100477.27
2019-04-28T15:02:25.125Z,100481.40
2019-04-28T15:05:12.745Z,100486.72
2019-04-28T15:08:00.756Z,100486.22
2019-04-28T15:10:49.962Z,100485.72
2019-04-28T15:13:22.413Z,100486.09
2019-04-28T15:15:52.438Z,100491.49
2019-04-28T15:18:21.921Z,100488.92
2019-04-28T15:20:52.360Z,100487.71
2019-04-28T15:23:24.927Z,100488.69
2019-04-28T15:25:56.837Z,100491.52
2019-04-28T15:28:27.301Z,100485.61
2019-04-28T15:30:57.269Z,100487.59
2019-04-28T15:33:27.976Z,100488.67
2019-04-28T15:35:57.776Z,100485.16
2019-04-28T15:38:29.722Z,100487.78
2019-04-28T15:41:02.544Z,100489.16
2019-04-28T15:43:34.660Z,100488.73
2019-04-28T15:46:14.102Z,100486.70
2019-04-28T15:48:44.681Z,100487.27
2019-04-28T15:51:16.023Z,100488.63
2019-04-28T15:53:50.190Z,100491.88
2019-04-28T15:56:29.330Z,100492.05
2019-04-28T15:59:00.523Z,100490.38
2019-04-28T16:01:31.458Z,100485.59
2019-04-28T16:04:04.559Z,100484.66
2019-04-28T16:06:34.319Z,100479.81
2019-04-28T16:09:06.949Z,100481.30
2019-04-28T16:11:38.507Z,100483.72
2019-04-28T16:14:08.201Z,100483.66
2019-04-28T16:16:38.754Z,100486.35
2019-04-28T16:19:09.214Z,100486.48
2019-04-28T16:21:39.336Z,100486.54
2019-04-28T16:24:09.649Z,100486.22
2019-04-28T16:26:39.130Z,100490.42
2019-04-28T16:29:09.231Z,100490.78
2019-04-28T16:31:39.108Z,100491.41
2019-04-28T16:34:11.358Z,100491.84
2019-04-28T16:36:42.116Z,100490.31
2019-04-28T16:39:12.581Z,100496.86
2019-04-28T16:41:51.105Z,100488.98
2019-04-28T16:44:26.389Z,100496.73
2019-04-28T16:46:56.534Z,100496.18
2019-04-28T16:49:28.380Z,100495.28
2019-04-28T16:52:03.015Z,100507.17
2019-04-28T16:54:33.497Z,100506.42
2019-04-28T16:57:14.527Z,100506.19
2019-04-28T16:59:50.009Z,100513.81
2019-04-28T17:02:32.124Z,100510.91
2019-04-28T17:05:03.755Z,100515.58
2019-04-28T17:07:36.981Z,100515.20
2019-04-28T17:10:10.594Z,100519.06
2019-04-28T17:12:42.917Z,100518.58
2019-04-28T17:15:15.403Z,100529.22
2019-04-28T17:17:49.744Z,100532.73
2019-04-28T17:20:19.972Z,100529.32
2019-04-28T17:22:51.364Z,100532.76
2019-04-28T17:25:22.828Z,100530.97
2019-04-28T17:27:52.755Z,100531.20
2019-04-28T17:30:23.684Z,100532.45
2019-04-28T17:32:53.851Z,100531.45
2019-04-28T17:35:23.601Z,100535.66
2019-04-28T17:38:06.038Z,100540.72
2019-04-28T17:40:27.579Z,100543.46
2019-04-28T17:42:58.825Z,100538.77
2019-04-28T17:45:28.962Z,100544.16
2019-04-28T17:48:03.582Z,100544.73
2019-04-28T17:50:33.805Z,100542.61
2019-04-28T17:53:04.655Z,100541.98
2019-04-28T17:55:35.117Z,100548.25
2019-04-28T17:58:05.153Z,100556.86
2019-04-28T18:00:47.894Z,100551.00
2019-04-28T18:03:35.000Z,100563.13
2019-04-28T18:06:18.206Z,100560.78
2019-04-28T18:08:46.568Z,100573.86
2019-04-28T18:11:16.573Z,100575.73
2019-04-28T18:13:47.426Z,100575.80
2019-04-28T18:16:48.798Z,100573.66
2019-04-28T18:19:20.106Z,100571.41
2019-04-28T18:21:50.653Z,100581.36
2019-04-28T18:24:20.940Z,100586.92
2019-04-28T18:26:52.399Z,100588.41
2019-04-28T18:29:24.188Z,100593.66
2019-04-28T18:32:11.818Z,100597.33
2019-04-28T18:35:08.471Z,100599.87
2019-04-28T18:38:09.404Z,100606.19
2019-04-28T18:41:03.495Z,100606.47
2019-04-28T18:43:55.076Z,100609.25
2019-04-28T18:46:29.162Z,100614.68
2019-04-28T18:48:58.889Z,100617.34
2019-04-28T18:51:29.990Z,100618.83
2019-04-28T18:54:01.908Z,100620.88
2019-04-28T18:56:32.244Z,100626.55
2019-04-28T18:59:02.027Z,100628.69
2019-04-28T19:01:45.687Z,100627.48
2019-04-28T19:04:18.812Z,100639.91
2019-04-28T19:06:49.545Z,100639.77
2019-04-28T19:09:45.713Z,100645.02
2019-04-28T19:12:40.186Z,100649.48
2019-04-28T19:15:27.810Z,100645.76
2019-04-28T19:18:04.860Z,100652.72
2019-04-28T19:20:34.385Z,100658.73
2019-04-28T19:23:07.253Z,100666.66
2019-04-28T19:25:37.803Z,100667.13
2019-04-28T19:28:09.454Z,100669.76
2019-04-28T19:30:45.745Z,100667.97
2019-04-28T19:33:17.405Z,100671.20
2019-04-28T19:35:47.408Z,100672.17
2019-04-28T19:38:22.051Z,100676.98
2019-04-28T19:40:56.516Z,100683.94
2019-04-28T19:43:33.218Z,100678.89
2019-04-28T19:46:05.709Z,100677.42
2019-04-28T19:48:35.871Z,100678.69
2019-04-28T19:51:06.440Z,100680.48
2019-04-28T19:53:36.592Z,100682.63
2019-04-28T19:56:19.463Z,100683.69
2019-04-28T19:59:00.516Z,100683.81
2019-04-28T20:01:37.878Z,100685.59
2019-04-28T20:04:09.403Z,100692.92
2019-04-28T20:06:39.717Z,100691.33
2019-04-28T20:09:09.800Z,100687.83
2019-04-28T20:11:42.648Z,100690.82
2019-04-28T20:14:18.889Z,100692.73
2019-04-28T20:16:50.312Z,100690.67
2019-04-28T20:19:22.946Z,100691.25
2019-04-28T20:21:53.247Z,100697.36
2019-04-28T20:24:23.116Z,100694.47
2019-04-28T20:26:53.940Z,100698.33
2019-04-28T20:29:28.267Z,100700.00
2019-04-28T20:31:59.764Z,100702.64
2019-04-28T20:34:30.789Z,100703.14
2019-04-28T20:37:20.080Z,100704.20
2019-04-28T20:39:53.933Z,100706.84
2019-04-28T20:42:56.538Z,100708.16
2019-04-28T20:45:29.157Z,100713.22
2019-04-28T20:48:01.297Z,100713.22
2019-04-28T20:50:33.873Z,100709.02
2019-04-28T20:53:04.283Z,100702.98
2019-04-28T20:55:34.904Z,100705.16
2019-04-28T20:58:05.158Z,100699.25
2019-04-28T21:00:35.498Z,100701.27
2019-04-28T21:03:05.637Z,100708.34
2019-04-28T21:05:37.773Z,100709.20
2019-04-28T21:08:09.846Z,100710.02
2019-04-28T21:10:39.860Z,100704.80
2019-04-28T21:13:11.145Z,100701.25
2019-04-28T21:15:43.408Z,100708.67
2019-04-28T21:18:14.814Z,100707.19
2019-04-28T21:20:47.407Z,100702.13
2019-04-28T21:23:17.810Z,100716.14
2019-04-28T21:25:47.605Z,100708.47
2019-04-28T21:28:17.773Z,100703.76
2019-04-28T21:30:48.019Z,100703.23
2019-04-28T21:33:18.457Z,100701.92
2019-04-28T21:35:51.800Z,100707.61
2019-04-28T21:38:24.705Z,100704.09
2019-04-28T21:41:01.012Z,100703.18
2019-04-28T21:44:06.342Z,100704.14
2019-04-28T21:46:58.357Z,100702.66
2019-04-28T21:49:30.227Z,100712.63
2019-04-28T21:51:59.707Z,100716.13
2019-04-28T21:54:30.086Z,100707.92
2019-04-28T21:57:00.073Z,100715.31
2019-04-28T21:59:29.833Z,100712.78
2019-04-28T22:02:02.336Z,100713.64
2019-04-28T22:04:32.048Z,100727.19
2019-04-28T22:07:02.909Z,100722.59
2019-04-28T22:09:34.054Z,100720.92
2019-04-28T22:12:07.785Z,100722.17
2019-04-28T22:14:37.543Z,100722.85
2019-04-28T22:17:08.216Z,100723.06
2019-04-28T22:19:40.715Z,100718.94
2019-04-28T22:22:11.394Z,100723.11
2019-04-28T22:24:54.094Z,100721.42
2019-04-28T22:27:29.146Z,100730.45
2019-04-28T22:30:05.719Z,100730.34
2019-04-28T22:32:39.367Z,100735.16
2019-04-28T22:35:10.811Z,100731.20
2019-04-28T22:37:42.401Z,100730.81
2019-04-28T22:40:12.270Z,100735.16
2019-04-28T22:42:41.958Z,100737.62
2019-04-28T22:45:15.055Z,100736.51
2019-04-28T22:47:45.536Z,100741.25
2019-04-28T22:50:36.145Z,100736.44
2019-04-28T22:53:06.307Z,100742.57
2019-04-28T22:55:39.867Z,100745.78
2019-04-28T22:58:23.585Z,100744.17
2019-04-28T23:01:11.995Z,100742.92
2019-04-28T23:03:53.153Z,100751.41
2019-04-28T23:06:22.670Z,100750.41
2019-04-28T23:08:52.736Z,100748.80
2019-04-28T23:11:23.243Z,100753.52
2019-04-28T23:13:53.425Z,100751.27
2019-04-28T23:16:23.906Z,100759.64
2019-04-28T23:18:53.661Z,100754.62
2019-04-28T23:21:51.897Z,100750.30
2019-04-28T23:24:23.011Z,100755.61
2019-04-28T23:26:52.623Z,100754.60
2019-04-28T23:29:22.614Z,100752.07
2019-04-28T23:31:52.493Z,100751.50
2019-04-28T23:34:21.981Z,100753.54
2019-04-28T23:36:51.772Z,100751.86
2019-04-28T23:39:25.372Z,100749.23
2019-04-28T23:42:06.977Z,100750.75
2019-04-28T23:44:37.541Z,100746.72
2019-04-28T23:47:08.131Z,100749.53
2019-04-28T23:49:40.075Z,100748.20
2019-04-28T23:52:28.685Z,100752.13
2019-04-28T23:55:01.024Z,100747.23
2019-04-28T23:57:31.247Z,100755.53
